Time;durP1;ratioP1;P1;durP2;ratioP2;P2;SDS_P1;SDS_P2;PMS_P1;PMS_P2;Temp;Humidity;BMP_temperature;BMP_pressure;BME280_temperature;BME280_humidity;BME280_pressure;Samples;Min_cycle;Max_cycle;Signal;HPM_P1;HPM_P2
2023/03/15 00:01:26;;;;;;;26.75;13.75;;;;;;;7.95;40.17;93979.09;5107677;28;20599;-71
2023/03/15 00:03:53;;;;;;;33.13;18.33;;;;;;;7.91;40.15;93983.94;5107422;28;20024;-69
2023/03/15 00:06:19;;;;;;;41.60;23.50;;;;;;;7.85;40.15;93984.94;5106167;28;20106;-71
2023/03/15 00:08:46;;;;;;;42.03;19.55;;;;;;;7.81;40.18;93984.31;5106311;28;20114;-70
2023/03/15 00:11:13;;;;;;;34.53;16.10;;;;;;;7.81;40.27;93981.56;5089181;28;20020;-71
2023/03/15 00:13:38;;;;;;;27.73;14.43;;;;;;;7.79;40.34;93973.00;5105911;28;20502;-71
2023/03/15 00:16:04;;;;;;;26.58;13.85;;;;;;;7.79;40.28;93989.44;5107459;28;20124;-71
2023/03/15 00:18:30;;;;;;;18.85;10.50;;;;;;;7.76;40.36;93984.84;5107190;28;20055;-71
2023/03/15 00:20:55;;;;;;;14.98;8.77;;;;;;;7.76;40.47;93976.66;5107067;28;20474;-71
2023/03/15 00:23:21;;;;;;;13.82;8.80;;;;;;;7.72;40.46;93974.03;5107223;28;20039;-71
2023/03/15 00:25:48;;;;;;;14.05;8.13;;;;;;;7.71;40.51;93970.53;5105687;28;20051;-71
2023/03/15 00:28:13;;;;;;;12.85;8.32;;;;;;;7.70;40.44;93968.22;5105692;28;20057;-70
2023/03/15 00:30:39;;;;;;;12.40;8.32;;;;;;;7.71;40.36;93973.25;5105318;28;20024;-70
2023/03/15 00:33:05;;;;;;;13.43;8.05;;;;;;;7.73;40.66;93964.59;5105688;28;20019;-71
2023/03/15 00:35:31;;;;;;;17.55;8.52;;;;;;;7.73;40.39;93959.13;5106683;28;20092;-70
2023/03/15 00:37:56;;;;;;;14.63;7.80;;;;;;;7.75;40.72;93959.47;5107025;28;20023;-70
2023/03/15 00:40:23;;;;;;;15.18;8.15;;;;;;;7.75;40.71;93966.91;5106791;28;20035;-71
2023/03/15 00:42:50;;;;;;;13.98;8.38;;;;;;;7.73;40.65;93962.63;5104905;28;20046;-71
2023/03/15 00:45:18;;;;;;;12.65;7.35;;;;;;;7.75;40.70;93964.94;5105590;28;20024;-71
2023/03/15 00:47:43;;;;;;;11.10;7.45;;;;;;;7.78;40.61;93961.31;5105078;28;20122;-70
2023/03/15 00:50:09;;;;;;;13.45;8.65;;;;;;;7.82;40.77;93959.22;5106580;28;20545;-71
2023/03/15 00:52:36;;;;;;;10.90;7.53;;;;;;;7.82;40.88;93953.75;5104947;28;20058;-70
2023/03/15 00:55:02;;;;;;;13.25;7.82;;;;;;;7.82;40.76;93942.81;5088304;28;20099;-70
2023/03/15 00:57:27;;;;;;;13.60;7.85;;;;;;;7.71;40.59;93915.81;5104179;28;20118;-70
2023/03/15 00:59:52;;;;;;;13.43;8.13;;;;;;;7.88;40.80;93932.81;5106754;28;20034;-69
2023/03/15 01:02:20;;;;;;;14.35;8.23;;;;;;;7.93;40.90;93936.97;5107049;28;20042;-71
2023/03/15 01:04:47;;;;;;;14.95;8.75;;;;;;;7.92;41.11;93928.00;5106063;28;20056;-70
2023/03/15 01:07:12;;;;;;;14.70;8.95;;;;;;;7.94;41.07;93927.53;5105816;28;20024;-71
2023/03/15 01:09:38;;;;;;;18.05;8.43;;;;;;;7.97;41.00;93930.16;5105492;28;20031;-71
2023/03/15 01:12:03;;;;;;;20.33;11.18;;;;;;;7.99;41.22;93926.97;5107500;28;20095;-71
2023/03/15 01:14:29;;;;;;;19.25;10.85;;;;;;;7.97;41.23;93930.16;5105984;28;20051;-70
2023/03/15 01:16:54;;;;;;;14.93;10.57;;;;;;;7.95;41.32;93927.09;5071274;28;20026;-71
2023/03/15 01:19:19;;;;;;;20.58;11.05;;;;;;;7.94;41.34;93920.09;5106730;28;20035;-72
2023/03/15 01:21:46;;;;;;;16.00;10.43;;;;;;;7.96;41.13;93917.69;5104507;28;20036;-71
2023/03/15 01:24:13;;;;;;;16.75;10.27;;;;;;;7.95;41.44;93909.91;5106341;28;20076;-71
2023/03/15 01:26:39;;;;;;;16.70;10.35;;;;;;;7.92;41.39;93913.56;5104647;28;20032;-70
2023/03/15 01:29:05;;;;;;;14.05;9.23;;;;;;;7.94;41.70;93902.91;5104522;28;20038;-71
2023/03/15 01:31:31;;;;;;;16.80;8.82;;;;;;;7.95;41.62;93907.94;5104059;28;20136;-71
2023/03/15 01:33:57;;;;;;;15.23;9.02;;;;;;;7.93;41.54;93904.91;5106103;28;20027;-70
2023/03/15 01:36:23;;;;;;;18.50;10.55;;;;;;;7.96;41.99;93914.19;5087652;28;20030;-70
2023/03/15 01:38:48;;;;;;;18.13;10.38;;;;;;;7.95;42.03;93898.97;5105303;28;20028;-71
2023/03/15 01:41:15;;;;;;;14.63;10.13;;;;;;;7.95;42.02;93891.53;5106043;28;20031;-72
2023/03/15 01:43:46;;;;;;;16.70;11.30;;;;;;;7.96;42.07;93882.09;5086503;28;20040;-71
2023/03/15 01:46:34;;;;;;;18.80;11.63;;;;;;;7.94;41.79;93894.72;5104638;28;20023;-71
2023/03/15 01:49:04;;;;;;;17.55;11.60;;;;;;;7.91;41.88;93893.63;5105470;28;20028;-71
2023/03/15 01:51:32;;;;;;;19.80;10.63;;;;;;;7.91;41.80;93893.63;5107796;28;20096;-71
2023/03/15 01:54:08;;;;;;;19.17;12.15;;;;;;;7.89;41.91;93882.34;5104509;28;20393;-71
2023/03/15 01:56:36;;;;;;;18.45;11.55;;;;;;;7.88;42.22;93880.84;5104034;28;20088;-71
2023/03/15 01:59:03;;;;;;;18.75;10.88;;;;;;;7.88;42.13;93880.06;5104372;28;20024;-71
2023/03/15 02:01:30;;;;;;;21.05;12.02;;;;;;;7.88;42.57;93880.06;5104111;28;20046;-71
2023/03/15 02:04:03;;;;;;;19.10;11.63;;;;;;;7.82;42.26;93876.38;5105694;28;20019;-72
2023/03/15 02:06:33;;;;;;;20.23;13.43;;;;;;;7.79;42.42;93860.84;5104241;28;20024;-72
2023/03/15 02:09:03;;;;;;;20.58;12.00;;;;;;;7.79;42.50;93864.34;5103963;28;20026;-71
2023/03/15 02:11:29;;;;;;;21.48;11.82;;;;;;;7.75;42.25;93852.00;5104163;28;20103;-71
2023/03/15 02:13:55;;;;;;;17.52;11.10;;;;;;;7.72;42.22;93862.63;5104856;28;20088;-71
2023/03/15 02:16:22;;;;;;;17.48;10.65;;;;;;;7.70;42.01;93856.84;5104052;28;20038;-71
2023/03/15 02:18:48;;;;;;;18.92;10.18;;;;;;;7.69;41.94;93855.31;5103394;28;20027;-71
2023/03/15 02:21:36;;;;;;;16.15;9.40;;;;;;;7.68;41.72;93850.25;5105164;28;20443;-71
2023/03/15 02:24:25;;;;;;;19.40;10.27;;;;;;;7.65;42.08;93853.91;5104986;28;20024;-71
2023/03/15 02:26:55;;;;;;;17.60;10.65;;;;;;;7.64;42.14;93846.91;5098537;28;20040;-71
2023/03/15 02:29:23;;;;;;;17.50;10.02;;;;;;;7.62;42.15;93838.38;5103515;28;20023;-70
2023/03/15 02:31:48;;;;;;;18.48;10.57;;;;;;;7.58;41.89;93843.22;5102992;28;20034;-71
2023/03/15 02:34:14;;;;;;;19.15;9.82;;;;;;;7.56;41.85;93846.38;5104805;28;20031;-70
2023/03/15 02:36:39;;;;;;;16.15;9.77;;;;;;;7.56;41.87;93846.38;5104780;28;20055;-70
2023/03/15 02:39:19;;;;;;;19.70;11.93;;;;;;;7.52;42.02;93842.25;5104534;28;20023;-70
2023/03/15 02:42:03;;;;;;;18.13;10.75;;;;;;;7.49;42.07;93851.34;5103160;28;20055;-72
2023/03/15 02:44:32;;;;;;;16.52;10.20;;;;;;;7.48;42.05;93839.63;5103152;28;20035;-72
2023/03/15 02:47:02;;;;;;;22.88;9.90;;;;;;;7.43;42.12;93835.50;5104366;28;20054;-71
2023/03/15 02:49:30;;;;;;;20.33;10.23;;;;;;;7.42;41.92;93830.47;5103398;28;20044;-71
2023/03/15 02:51:56;;;;;;;16.75;10.35;;;;;;;7.42;42.45;93825.75;5103083;28;20050;-70
2023/03/15 02:54:21;;;;;;;17.35;10.02;;;;;;;7.44;42.64;93834.28;5104736;28;20498;-71
2023/03/15 02:56:47;;;;;;;17.63;10.30;;;;;;;7.39;42.65;93829.38;5104372;28;20099;-71
2023/03/15 02:59:12;;;;;;;19.83;10.77;;;;;;;7.37;43.02;93822.81;5103316;28;20380;-71
2023/03/15 03:01:37;;;;;;;18.50;11.05;;;;;;;7.35;43.22;93827.97;5102705;28;20072;-71
2023/03/15 03:04:03;;;;;;;15.57;10.80;;;;;;;7.30;43.36;93820.34;5102807;28;20031;-69
2023/03/15 03:06:29;;;;;;;17.38;11.32;;;;;;;7.29;43.62;93813.34;5102822;28;20035;-70
2023/03/15 03:08:54;;;;;;;18.02;10.98;;;;;;;7.29;43.79;93816.09;5102939;28;20093;-71
2023/03/15 03:11:19;;;;;;;16.17;9.57;;;;;;;7.26;43.46;93803.28;5104313;28;20201;-70
2023/03/15 03:13:45;;;;;;;18.80;10.32;;;;;;;7.21;43.31;93810.06;5104357;28;20107;-71
2023/03/15 03:16:10;;;;;;;21.77;10.10;;;;;;;7.17;44.00;93812.19;5104951;28;20331;-70
2023/03/15 03:18:36;;;;;;;16.98;10.13;;;;;;;7.16;44.23;93811.41;5102725;28;20473;-70
2023/03/15 03:21:04;;;;;;;17.73;10.57;;;;;;;7.15;44.21;93814.59;5104569;28;20031;-70
2023/03/15 03:23:30;;;;;;;17.88;10.63;;;;;;;7.16;44.45;93816.09;5106808;28;20058;-70
2023/03/15 03:25:56;;;;;;;20.30;11.18;;;;;;;7.14;44.37;93796.66;5106568;28;20027;-70
2023/03/15 03:28:24;;;;;;;18.83;10.10;;;;;;;7.16;44.16;93796.97;5106882;28;20027;-72
2023/03/15 03:30:53;;;;;;;15.68;9.98;;;;;;;7.15;44.25;93796.22;5108509;28;20036;-70
2023/03/15 03:33:18;;;;;;;15.98;9.45;;;;;;;7.13;44.25;93798.63;5106720;28;20039;-71
2023/03/15 03:35:44;;;;;;;19.58;10.27;;;;;;;7.15;44.24;93792.72;5106518;28;20035;-70
2023/03/15 03:38:10;;;;;;;18.88;9.55;;;;;;;7.16;44.31;93794.25;5108198;28;20050;-70
2023/03/15 03:40:36;;;;;;;16.63;9.63;;;;;;;7.16;44.67;93794.25;5106447;28;20032;-70
2023/03/15 03:43:01;;;;;;;17.63;10.10;;;;;;;7.15;44.66;93787.25;5107693;28;20039;-70
2023/03/15 03:45:27;;;;;;;20.33;9.82;;;;;;;7.15;44.49;93781.78;5107897;28;20047;-71
2023/03/15 03:47:52;;;;;;;16.23;10.27;;;;;;;7.15;44.42;93789.97;5108156;28;20114;-71
2023/03/15 03:50:18;;;;;;;14.70;9.07;;;;;;;7.17;44.37;93791.09;5089470;28;20036;-71
2023/03/15 03:52:43;;;;;;;18.83;9.30;;;;;;;7.15;44.13;93787.25;5107888;28;20019;-71
2023/03/15 03:55:12;;;;;;;12.68;8.40;;;;;;;7.13;43.85;93774.03;5108052;28;20425;-69
2023/03/15 03:57:38;;;;;;;15.35;8.23;;;;;;;7.13;43.38;93779.50;5107858;28;20028;-71
2023/03/15 04:00:05;;;;;;;18.45;9.43;;;;;;;7.11;43.50;93768.25;5107586;28;20052;-70
2023/03/15 04:02:30;;;;;;;14.50;8.70;;;;;;;7.15;43.39;93759.91;5107941;28;20020;-70
2023/03/15 04:04:55;;;;;;;14.27;9.02;;;;;;;7.17;43.64;93758.28;5107925;28;20555;-70
2023/03/15 04:07:21;;;;;;;16.00;8.52;;;;;;;7.19;43.35;93761.31;5107421;28;20028;-70
2023/03/15 04:09:46;;;;;;;15.07;8.57;;;;;;;7.23;43.65;93760.47;5107973;28;20077;-70
2023/03/15 04:12:12;;;;;;;13.50;8.43;;;;;;;7.24;43.60;93767.44;5107895;28;20055;-70
2023/03/15 04:14:37;;;;;;;17.48;9.25;;;;;;;7.22;43.83;93765.13;5106045;28;20596;-70
2023/03/15 04:17:03;;;;;;;14.70;9.27;;;;;;;7.25;43.65;93760.75;5106524;28;20035;-70
2023/03/15 04:19:29;;;;;;;16.35;9.13;;;;;;;7.26;43.84;93762.28;5107189;28;20338;-71
2023/03/15 04:21:55;;;;;;;17.88;9.88;;;;;;;7.24;43.81;93767.44;5107500;28;20540;-72
2023/03/15 04:24:20;;;;;;;18.02;9.23;;;;;;;7.25;43.86;93767.00;5088655;28;20420;-70
2023/03/15 04:26:45;;;;;;;15.52;9.73;;;;;;;7.28;44.13;93765.34;5107557;28;20427;-71
2023/03/15 04:29:11;;;;;;;20.17;9.40;;;;;;;7.23;43.94;93760.47;5107480;28;20024;-72
2023/03/15 04:31:37;;;;;;;16.40;9.00;;;;;;;7.25;44.18;93763.50;5108703;28;20053;-71
2023/03/15 04:34:03;;;;;;;17.35;8.98;;;;;;;7.29;44.25;93761.41;5105865;28;20391;-71
2023/03/15 04:36:29;;;;;;;18.98;9.07;;;;;;;7.29;44.13;93755.94;5106443;28;20129;-71
2023/03/15 04:39:04;;;;;;;18.02;9.82;;;;;;;7.27;44.21;93761.84;5106654;28;20059;-72
2023/03/15 04:41:30;;;;;;;19.95;10.68;;;;;;;7.29;44.38;93758.69;5106632;28;20127;-71
2023/03/15 04:43:55;;;;;;;19.23;9.85;;;;;;;7.27;44.26;93750.13;5105581;28;20098;-70
2023/03/15 04:46:20;;;;;;;17.80;9.60;;;;;;;7.24;44.43;93749.06;5105342;28;20035;-70
2023/03/15 04:48:46;;;;;;;16.63;9.45;;;;;;;7.24;44.30;93749.06;5107136;28;20496;-70
2023/03/15 04:51:11;;;;;;;18.30;9.60;;;;;;;7.25;44.54;93752.56;5105470;28;20028;-70
2023/03/15 04:53:38;;;;;;;14.25;8.85;;;;;;;7.27;44.77;93759.09;5105260;28;20027;-70
2023/03/15 04:56:04;;;;;;;15.23;9.55;;;;;;;7.30;44.67;93747.28;5107097;28;20030;-70
2023/03/15 04:58:30;;;;;;;14.55;9.70;;;;;;;7.31;44.62;93746.06;5106429;28;20028;-72
2023/03/15 05:00:55;;;;;;;17.90;9.30;;;;;;;7.33;44.55;93743.66;5105143;28;20024;-71
2023/03/15 05:03:20;;;;;;;17.67;10.30;;;;;;;7.33;44.44;93740.91;5106312;28;20028;-71
2023/03/15 05:05:46;;;;;;;15.10;9.65;;;;;;;7.34;44.71;93745.19;5106971;28;20028;-71
2023/03/15 05:08:11;;;;;;;22.17;10.38;;;;;;;7.34;44.73;93758.09;5105432;28;20028;-72
2023/03/15 05:10:37;;;;;;;15.93;10.35;;;;;;;7.33;44.67;93751.09;5104785;28;20081;-71
2023/03/15 05:13:03;;;;;;;18.63;9.98;;;;;;;7.35;44.10;93745.97;5105533;28;20024;-71
2023/03/15 05:15:28;;;;;;;22.00;10.20;;;;;;;7.34;43.04;93750.66;5105920;28;20708;-71
2023/03/15 05:17:54;;;;;;;18.13;9.38;;;;;;;7.37;42.51;93759.94;5105227;28;20023;-70
2023/03/15 05:20:20;;;;;;;13.57;8.48;;;;;;;7.37;41.39;93762.69;5106101;28;20041;-70
2023/03/15 05:22:45;;;;;;;13.40;9.13;;;;;;;7.40;40.86;93742.66;5105090;28;20027;-71
2023/03/15 05:25:11;;;;;;;15.27;9.85;;;;;;;7.42;41.04;93745.72;5104942;28;20031;-70
2023/03/15 05:27:37;;;;;;;15.48;8.73;;;;;;;7.24;40.93;93719.00;5104845;28;20030;-72
2023/03/15 05:30:04;;;;;;;16.92;10.48;;;;;;;7.45;41.28;93744.81;5106311;28;20106;-70
2023/03/15 05:32:33;;;;;;;16.00;10.50;;;;;;;7.48;41.50;93741.19;5105637;28;20039;-70
2023/03/15 05:35:02;;;;;;;20.63;10.80;;;;;;;7.52;41.71;93747.31;5104861;28;20035;-70
2023/03/15 05:37:28;;;;;;;16.15;10.38;;;;;;;7.53;41.87;93739.84;5105584;28;20502;-70
2023/03/15 05:39:53;;;;;;;17.40;9.60;;;;;;;7.55;41.60;93738.19;5105813;28;20050;-70
2023/03/15 05:42:24;;;;;;;18.70;9.70;;;;;;;7.57;41.42;93743.22;5105551;28;20101;-70
2023/03/15 05:44:51;;;;;;;17.05;10.02;;;;;;;7.60;41.38;93731.38;5104614;28;20087;-70
2023/03/15 05:47:16;;;;;;;13.13;9.70;;;;;;;7.64;40.86;93746.47;5104746;28;20028;-71
2023/03/15 05:49:41;;;;;;;19.08;10.73;;;;;;;7.71;40.89;93738.00;5105334;28;20038;-69
2023/03/15 05:52:07;;;;;;;21.40;10.57;;;;;;;7.75;40.79;93724.19;5106555;27;20024;-70
2023/03/15 05:54:32;;;;;;;16.33;10.18;;;;;;;7.83;40.37;93739.13;5103795;28;20066;-69
2023/03/15 05:56:58;;;;;;;19.55;10.00;;;;;;;7.86;39.92;93730.03;5105725;28;20512;-69
2023/03/15 05:59:23;;;;;;;17.02;10.35;;;;;;;7.93;39.97;93729.75;5105781;28;20150;-70
2023/03/15 06:01:48;;;;;;;12.70;7.80;;;;;;;8.01;38.51;93730.25;5105541;28;20024;-70
2023/03/15 06:04:14;;;;;;;12.43;7.95;;;;;;;7.87;37.96;93728.06;5104093;28;20023;-70
2023/03/15 06:06:39;;;;;;;11.13;5.25;;;;;;;7.75;37.31;93735.13;5105358;28;20137;-70
2023/03/15 06:09:04;;;;;;;8.20;5.03;;;;;;;7.48;37.15;93735.72;5105805;28;20508;-70
2023/03/15 06:11:30;;;;;;;9.07;4.65;;;;;;;7.36;37.13;93731.84;5103473;28;20041;-70
2023/03/15 06:13:55;;;;;;;8.43;5.28;;;;;;;7.34;37.71;93730.75;5104198;28;20374;-71
2023/03/15 06:16:21;;;;;;;6.55;3.83;;;;;;;7.24;37.16;93734.63;5104210;28;20099;-70
2023/03/15 06:18:46;;;;;;;7.20;3.47;;;;;;;6.95;37.59;93741.09;5103616;28;20122;-70
2023/03/15 06:21:11;;;;;;;6.40;3.80;;;;;;;6.80;37.83;93742.75;5102553;28;20135;-70
2023/03/15 06:23:37;;;;;;;5.70;3.60;;;;;;;6.82;38.07;93743.06;5104794;28;20028;-71
2023/03/15 06:26:02;;;;;;;8.30;4.10;;;;;;;6.75;38.14;93752.28;5105211;28;20371;-71
2023/03/15 06:28:28;;;;;;;9.18;4.13;;;;;;;6.76;38.24;93744.84;5103808;28;20059;-70
2023/03/15 06:30:53;;;;;;;7.82;3.95;;;;;;;6.87;38.22;93746.00;5105438;28;20096;-71
2023/03/15 06:33:18;;;;;;;5.88;3.65;;;;;;;7.03;38.37;93750.56;5105060;28;20542;-71
2023/03/15 06:35:45;;;;;;;8.23;4.40;;;;;;;7.16;38.15;93734.88;5103519;28;20027;-70
2023/03/15 06:38:12;;;;;;;9.32;4.22;;;;;;;7.40;37.92;93731.72;5103418;28;20478;-69
2023/03/15 06:40:38;;;;;;;7.32;5.15;;;;;;;7.54;38.07;93725.72;5103413;28;20173;-71
2023/03/15 06:43:05;;;;;;;7.88;4.45;;;;;;;7.68;37.60;93729.91;5104329;28;20039;-71
2023/03/15 06:45:31;;;;;;;6.75;4.68;;;;;;;7.82;37.54;93729.38;5105172;28;20020;-69
2023/03/15 06:47:56;;;;;;;8.20;4.45;;;;;;;7.98;37.11;93731.16;5104973;28;20024;-68
2023/03/15 06:50:22;;;;;;;8.70;4.78;;;;;;;8.11;37.15;93729.06;5104657;28;20070;-70
2023/03/15 06:52:47;;;;;;;8.55;4.93;;;;;;;8.24;36.70;93732.47;5104915;28;20485;-70
2023/03/15 06:55:16;;;;;;;6.55;4.63;;;;;;;8.38;36.63;93735.91;5103845;28;20030;-71
2023/03/15 06:57:42;;;;;;;13.68;6.22;;;;;;;8.51;36.07;93739.28;5104349;28;20623;-71
2023/03/15 07:00:10;;;;;;;10.48;4.90;;;;;;;8.61;36.30;93743.56;5103056;28;20019;-69
2023/03/15 07:02:36;;;;;;;9.30;5.82;;;;;;;8.76;36.26;93739.03;5104914;28;20427;-69
2023/03/15 07:05:02;;;;;;;8.80;5.70;;;;;;;8.98;36.02;93727.94;5104686;28;20023;-71
2023/03/15 07:07:28;;;;;;;13.27;7.15;;;;;;;9.15;35.58;93733.16;5105144;28;20030;-71
2023/03/15 07:09:53;;;;;;;11.13;6.07;;;;;;;9.31;35.26;93724.63;5107531;28;20019;-71
2023/03/15 07:12:18;;;;;;;10.27;5.85;;;;;;;9.33;35.46;93722.16;5104131;28;20023;-69
2023/03/15 07:14:45;;;;;;;10.27;5.47;;;;;;;9.49;34.67;93718.34;5104517;28;20028;-71
2023/03/15 07:17:11;;;;;;;8.20;5.30;;;;;;;9.63;34.52;93720.47;5104652;28;20114;-70
2023/03/15 07:19:36;;;;;;;7.35;5.40;;;;;;;9.65;34.35;93720.03;5104730;28;20663;-73
2023/03/15 07:22:02;;;;;;;9.02;5.35;;;;;;;9.68;34.70;93722.59;5102828;28;20035;-70
2023/03/15 07:24:27;;;;;;;9.13;5.28;;;;;;;9.83;34.05;93728.97;5103462;28;20019;-72
2023/03/15 07:26:55;;;;;;;8.73;5.30;;;;;;;10.02;33.90;93731.66;5104406;28;20039;-72
2023/03/15 07:29:22;;;;;;;7.55;4.85;;;;;;;10.07;33.79;93729.06;5102775;28;20048;-72
2023/03/15 07:31:47;;;;;;;10.00;5.60;;;;;;;10.17;33.40;93738.03;5104678;28;20513;-73
2023/03/15 07:34:13;;;;;;;10.48;5.47;;;;;;;10.33;33.27;93732.19;5102750;28;20038;-72
2023/03/15 07:36:38;;;;;;;8.98;4.63;;;;;;;10.42;32.73;93717.66;5104409;28;20151;-73
2023/03/15 07:39:03;;;;;;;9.35;4.97;;;;;;;10.57;32.75;93712.25;5102513;28;20118;-73
2023/03/15 07:41:30;;;;;;;9.32;5.18;;;;;;;10.63;32.78;93715.88;5104155;28;20376;-73
2023/03/15 07:43:55;;;;;;;9.25;5.43;;;;;;;10.67;32.97;93721.97;5102567;28;20107;-73
2023/03/15 07:46:21;;;;;;;11.73;5.45;;;;;;;10.85;32.75;93724.59;5086034;28;20114;-73
2023/03/15 07:48:46;;;;;;;8.25;4.82;;;;;;;11.06;32.22;93722.00;5104658;28;20077;-74
2023/03/15 07:51:11;;;;;;;11.27;5.28;;;;;;;11.13;32.40;93721.69;5103876;28;20047;-74
2023/03/15 07:53:37;;;;;;;10.18;5.22;;;;;;;11.37;32.11;93710.63;5104090;28;20618;-74
2023/03/15 07:56:03;;;;;;;9.70;5.25;;;;;;;11.52;31.70;93705.16;5103838;28;20081;-73
2023/03/15 07:58:28;;;;;;;8.43;4.88;;;;;;;11.62;31.68;93712.09;5104163;28;20115;-73
2023/03/15 08:00:57;;;;;;;10.13;4.65;;;;;;;11.68;31.57;93701.94;5103688;28;20158;-74
2023/03/15 08:03:26;;;;;;;7.70;5.00;;;;;;;11.73;31.50;93709.53;5103470;28;20493;-75
2023/03/15 08:05:52;;;;;;;10.32;5.07;;;;;;;11.83;31.36;93705.50;5105416;28;20035;-74
2023/03/15 08:08:17;;;;;;;6.50;4.22;;;;;;;11.87;31.28;93702.53;5106963;28;20067;-73
2023/03/15 08:10:43;;;;;;;7.20;4.45;;;;;;;11.99;30.92;93706.25;5106572;28;20401;-73
2023/03/15 08:13:09;;;;;;;7.80;4.15;;;;;;;12.02;31.01;93705.28;5105982;28;20122;-73
2023/03/15 08:15:34;;;;;;;9.48;3.88;;;;;;;12.19;30.57;93696.06;5107550;28;20492;-73
2023/03/15 08:18:00;;;;;;;7.10;4.25;;;;;;;12.35;30.46;93686.53;5107275;27;20020;-74
2023/03/15 08:20:26;;;;;;;8.40;4.55;;;;;;;12.37;30.70;93678.53;5107733;28;20032;-74
2023/03/15 08:22:51;;;;;;;11.15;5.18;;;;;;;12.52;30.62;93681.28;5105977;28;20110;-74
2023/03/15 08:25:20;;;;;;;10.48;4.43;;;;;;;12.81;30.29;93685.94;5105738;28;20026;-73
2023/03/15 08:27:46;;;;;;;9.13;5.00;;;;;;;13.16;29.64;93682.34;5106449;28;20024;-74
2023/03/15 08:30:13;;;;;;;11.75;5.22;;;;;;;13.36;29.26;93695.41;5106655;28;20573;-73
2023/03/15 08:32:39;;;;;;;5.93;4.35;;;;;;;13.31;29.15;93691.34;5107572;28;20520;-74
2023/03/15 08:35:06;;;;;;;7.43;4.40;;;;;;;13.40;29.38;93676.63;5105459;28;20516;-73
2023/03/15 08:37:31;;;;;;;11.25;5.32;;;;;;;13.63;29.16;93678.38;5088736;28;20028;-74
2023/03/15 08:40:01;;;;;;;9.38;4.80;;;;;;;13.75;28.87;93674.47;5088593;28;20019;-74
2023/03/15 08:42:26;;;;;;;9.20;5.40;;;;;;;13.88;28.87;93676.88;5105405;28;20075;-74
2023/03/15 08:44:52;;;;;;;7.63;4.53;;;;;;;14.04;28.75;93676.25;5105906;28;20067;-74
2023/03/15 08:47:18;;;;;;;7.13;4.25;;;;;;;14.24;28.30;93678.16;5106625;28;20035;-74
2023/03/15 08:49:43;;;;;;;6.70;4.25;;;;;;;14.43;27.68;93672.28;5105920;28;20547;-75
2023/03/15 08:52:08;;;;;;;7.68;4.63;;;;;;;14.70;27.57;93677.25;5105607;28;20849;-73
2023/03/15 08:54:34;;;;;;;9.00;4.43;;;;;;;14.79;27.31;93674.28;5107151;28;20095;-74
2023/03/15 08:56:59;;;;;;;9.13;4.72;;;;;;;14.73;27.76;93681.03;5107207;27;20016;-74
2023/03/15 08:59:25;;;;;;;13.20;5.28;;;;;;;14.73;27.59;93678.25;5105586;28;20505;-74
2023/03/15 09:01:50;;;;;;;10.75;5.40;;;;;;;14.70;27.68;93679.25;5106979;28;20016;-73
2023/03/15 09:04:16;;;;;;;10.15;5.32;;;;;;;14.70;28.01;93677.25;5106431;28;20503;-73
2023/03/15 09:06:41;;;;;;;8.75;5.15;;;;;;;14.79;27.97;93671.50;5106716;28;20087;-74
2023/03/15 09:09:07;;;;;;;13.80;5.10;;;;;;;14.94;27.52;93671.34;5105904;28;20023;-74
2023/03/15 09:11:32;;;;;;;7.13;4.20;;;;;;;14.85;27.49;93668.78;5106701;28;20064;-74
2023/03/15 09:13:57;;;;;;;12.02;6.50;;;;;;;14.87;27.82;93672.56;5106391;28;20394;-74
2023/03/15 09:16:23;;;;;;;33.53;14.50;;;;;;;14.73;28.33;93667.19;5105180;28;20152;-74
2023/03/15 09:18:48;;;;;;;30.52;13.13;;;;;;;14.67;27.95;93669.94;5104238;28;20015;-74
2023/03/15 09:21:14;;;;;;;16.88;7.70;;;;;;;14.68;28.05;93670.69;5105017;28;20020;-74
2023/03/15 09:23:39;;;;;;;9.98;4.10;;;;;;;14.61;28.28;93675.44;5106602;28;20473;-74
2023/03/15 09:26:04;;;;;;;6.03;3.60;;;;;;;14.60;28.19;93667.63;5104853;28;20016;-72
2023/03/15 09:28:30;;;;;;;10.23;4.35;;;;;;;14.51;28.29;93673.38;5087743;28;20126;-72
2023/03/15 09:30:55;;;;;;;5.90;3.75;;;;;;;14.46;28.46;93661.00;5104523;28;20030;-73
2023/03/15 09:33:21;;;;;;;7.97;3.67;;;;;;;14.31;28.42;93663.91;5087478;28;20328;-74
2023/03/15 09:35:53;;;;;;;8.88;4.57;;;;;;;14.27;28.52;93657.06;5104358;28;20050;-74
2023/03/15 09:38:19;;;;;;;13.27;5.97;;;;;;;14.40;28.68;93649.13;5106295;28;20098;-74
2023/03/15 09:40:45;;;;;;;8.55;4.53;;;;;;;14.44;28.48;93652.41;5106040;28;20102;-74
2023/03/15 09:43:31;;;;;;;6.72;4.13;;;;;;;14.37;28.46;93650.13;5104192;28;20054;-74
2023/03/15 09:46:39;;;;;;;6.65;4.18;;;;;;;14.50;28.28;93649.72;5106308;28;20031;-74
2023/03/15 09:49:07;;;;;;;9.07;4.45;;;;;;;14.22;29.06;93650.28;5046458;28;20555;-74
2023/03/15 09:51:47;;;;;;;6.32;5.03;;;;;;;13.98;29.16;93641.53;5062806;28;20040;-74
2023/03/15 09:54:15;;;;;;;6.18;4.40;;;;;;;13.89;29.66;93638.97;5080497;28;20040;-73
2023/03/15 09:57:01;;;;;;;9.40;3.65;;;;;;;13.72;29.76;93636.81;5103929;28;20024;-73
2023/03/15 09:59:36;;;;;;;5.93;3.60;;;;;;;13.55;30.09;93628.34;5104415;28;20032;-73
2023/03/15 10:02:18;;;;;;;4.50;3.20;;;;;;;13.36;30.08;93635.47;5104906;28;20474;-73
2023/03/15 10:04:45;;;;;;;5.78;3.83;;;;;;;13.18;30.63;93644.75;5105637;28;20088;-73
2023/03/15 10:07:14;;;;;;;5.80;3.65;;;;;;;13.01;30.97;93630.00;5104432;28;20015;-74
2023/03/15 10:09:39;;;;;;;6.68;3.53;;;;;;;13.05;31.27;93643.59;5103712;28;20051;-74
2023/03/15 10:12:12;;;;;;;5.15;3.40;;;;;;;13.03;30.79;93644.09;5104107;28;20062;-74
2023/03/15 10:14:45;;;;;;;7.40;3.60;;;;;;;13.15;30.63;93645.72;5103734;28;20448;-73
2023/03/15 10:17:11;;;;;;;;;;;;;;;13.35;30.44;93646.97;5106047;28;20120;-74
2023/03/15 10:19:44;;;;;;;6.28;3.58;;;;;;;13.52;30.12;93651.41;5103494;28;20004;-74
2023/03/15 10:22:12;;;;;;;7.05;3.45;;;;;;;13.78;29.78;93639.63;5105374;28;20020;-74
2023/03/15 10:25:14;;;;;;;5.60;3.45;;;;;;;14.01;29.41;93641.31;5105287;28;20061;-73
2023/03/15 10:27:49;;;;;;;5.25;3.45;;;;;;;14.14;29.52;93640.16;5103431;28;20068;-75
2023/03/15 10:30:18;;;;;;;6.30;3.80;;;;;;;14.19;29.44;93645.72;5103160;28;20035;-73
2023/03/15 10:32:48;;;;;;;7.38;3.38;;;;;;;14.21;29.32;93632.16;5103795;28;20410;-74
2023/03/15 10:35:16;;;;;;;6.85;3.75;;;;;;;14.23;29.69;93635.19;5103681;28;20019;-73
2023/03/15 10:37:42;;;;;;;8.48;3.65;;;;;;;14.25;29.41;93632.69;5103648;28;20028;-73
2023/03/15 10:40:14;;;;;;;6.80;3.83;;;;;;;14.19;29.58;93631.91;5103341;28;20020;-74
2023/03/15 10:42:44;;;;;;;7.43;4.50;;;;;;;14.01;29.43;93632.28;5102903;28;20055;-74
2023/03/15 10:45:23;;;;;;;7.05;3.90;;;;;;;13.86;29.22;93639.91;5103238;28;20768;-75
2023/03/15 10:47:50;;;;;;;7.65;3.90;;;;;;;13.66;29.87;93638.75;5103561;28;20051;-73
2023/03/15 10:50:28;;;;;;;6.03;4.05;;;;;;;13.64;30.02;93632.94;5103574;28;20571;-74
2023/03/15 10:52:58;;;;;;;12.27;4.18;;;;;;;13.54;30.39;93620.56;5104412;28;20159;-73
2023/03/15 10:55:43;;;;;;;6.07;3.67;;;;;;;13.52;30.28;93626.56;5103401;28;20024;-73
2023/03/15 10:58:27;;;;;;;7.97;4.43;;;;;;;13.30;30.53;93634.63;5085972;28;20589;-73
2023/03/15 11:01:02;;;;;;;8.18;4.60;;;;;;;13.16;30.59;93632.69;5104863;28;20032;-75
2023/03/15 11:03:28;;;;;;;7.15;4.10;;;;;;;12.94;30.79;93636.69;5103632;28;20032;-74
2023/03/15 11:05:56;;;;;;;7.93;4.18;;;;;;;12.81;31.12;93632.78;5103038;28;20034;-74
2023/03/15 11:08:36;;;;;;;6.85;4.07;;;;;;;12.77;31.29;93627.47;5103470;28;20027;-74
2023/03/15 11:11:02;;;;;;;7.05;4.10;;;;;;;12.77;31.43;93633.72;5104603;28;20024;-73
2023/03/15 11:13:29;;;;;;;6.93;4.47;;;;;;;12.73;31.15;93629.66;5103610;28;20088;-73
2023/03/15 11:16:08;;;;;;;12.45;4.78;;;;;;;12.71;31.34;93624.63;5086029;28;20532;-75
2023/03/15 11:18:46;;;;;;;8.32;4.38;;;;;;;12.75;31.52;93624.44;5102910;28;20026;-73
2023/03/15 11:21:15;;;;;;;9.48;4.50;;;;;;;12.80;31.37;93623.00;5104607;28;20050;-73
2023/03/15 11:23:50;;;;;;;7.32;4.38;;;;;;;12.88;31.46;93613.06;5085789;28;20023;-75
2023/03/15 11:26:21;;;;;;;6.90;4.20;;;;;;;12.94;31.34;93625.66;5103478;28;20043;-74
2023/03/15 11:28:56;;;;;;;9.10;4.82;;;;;;;12.97;31.17;93624.72;5104322;28;20442;-73
2023/03/15 11:31:24;;;;;;;8.10;4.45;;;;;;;12.93;31.28;93618.63;5103557;28;20023;-73
2023/03/15 11:33:56;;;;;;;6.97;4.30;;;;;;;13.00;31.47;93634.00;5103821;28;20024;-74